sensor_id;sensor_type;location;lat;lon;timestamp;P1;durP1;ratioP1;P2;durP2;ratioP2
27438;SDS011;14887;51.252;7.470;2022-09-09T00:04:38;2.70;;;1.40;;
27438;SDS011;14887;51.252;7.470;2022-09-09T00:09:58;13.07;;;2.00;;
27438;SDS011;14887;51.252;7.470;2022-09-09T00:12:27;6.13;;;2.27;;
27438;SDS011;14887;51.252;7.470;2022-09-09T00:15:02;4.40;;;2.00;;
27438;SDS011;14887;51.252;7.470;2022-09-09T00:17:43;7.13;;;1.80;;
27438;SDS011;14887;51.252;7.470;2022-09-09T00:20:13;6.00;;;2.17;;
27438;SDS011;14887;51.252;7.470;2022-09-09T00:22:41;2.33;;;1.67;;
27438;SDS011;14887;51.252;7.470;2022-09-09T00:25:12;5.43;;;2.20;;
27438;SDS011;14887;51.252;7.470;2022-09-09T00:27:44;2.43;;;1.40;;
27438;SDS011;14887;51.252;7.470;2022-09-09T00:30:18;5.07;;;1.50;;
27438;SDS011;14887;51.252;7.470;2022-09-09T00:32:46;2.20;;;1.30;;
27438;SDS011;14887;51.252;7.470;2022-09-09T00:35:14;3.27;;;1.80;;
27438;SDS011;14887;51.252;7.470;2022-09-09T00:37:43;6.83;;;1.43;;
27438;SDS011;14887;51.252;7.470;2022-09-09T00:40:23;10.37;;;1.90;;
27438;SDS011;14887;51.252;7.470;2022-09-09T00:42:54;9.20;;;1.77;;
27438;SDS011;14887;51.252;7.470;2022-09-09T00:48:10;7.40;;;1.97;;
27438;SDS011;14887;51.252;7.470;2022-09-09T00:58:01;7.93;;;2.00;;
27438;SDS011;14887;51.252;7.470;2022-09-09T01:00:31;7.00;;;2.20;;
27438;SDS011;14887;51.252;7.470;2022-09-09T01:03:18;3.90;;;1.77;;
27438;SDS011;14887;51.252;7.470;2022-09-09T01:06:00;6.90;;;1.80;;
27438;SDS011;14887;51.252;7.470;2022-09-09T01:10:58;5.90;;;2.50;;
27438;SDS011;14887;51.252;7.470;2022-09-09T01:13:29;3.27;;;1.37;;
27438;SDS011;14887;51.252;7.470;2022-09-09T01:15:56;4.33;;;1.90;;
27438;SDS011;14887;51.252;7.470;2022-09-09T01:18:27;6.33;;;2.13;;
27438;SDS011;14887;51.252;7.470;2022-09-09T01:21:43;6.07;;;1.90;;
27438;SDS011;14887;51.252;7.470;2022-09-09T01:26:12;10.33;;;1.40;;
27438;SDS011;14887;51.252;7.470;2022-09-09T01:28:39;3.47;;;1.60;;
27438;SDS011;14887;51.252;7.470;2022-09-09T01:31:06;5.80;;;1.63;;
27438;SDS011;14887;51.252;7.470;2022-09-09T01:33:33;2.50;;;1.60;;
27438;SDS011;14887;51.252;7.470;2022-09-09T01:36:00;7.93;;;1.40;;
27438;SDS011;14887;51.252;7.470;2022-09-09T01:38:28;9.00;;;1.70;;
27438;SDS011;14887;51.252;7.470;2022-09-09T01:40:54;5.33;;;1.77;;
27438;SDS011;14887;51.252;7.470;2022-09-09T01:43:20;4.07;;;1.63;;
27438;SDS011;14887;51.252;7.470;2022-09-09T01:45:47;3.60;;;1.70;;
27438;SDS011;14887;51.252;7.470;2022-09-09T01:48:15;10.87;;;1.93;;
27438;SDS011;14887;51.252;7.470;2022-09-09T01:50:41;10.53;;;1.97;;
27438;SDS011;14887;51.252;7.470;2022-09-09T01:53:07;11.20;;;1.90;;
27438;SDS011;14887;51.252;7.470;2022-09-09T01:55:36;5.37;;;1.80;;
27438;SDS011;14887;51.252;7.470;2022-09-09T02:00:43;7.93;;;3.00;;
27438;SDS011;14887;51.252;7.470;2022-09-09T02:05:41;9.97;;;1.90;;
27438;SDS011;14887;51.252;7.470;2022-09-09T02:08:17;4.67;;;2.50;;
27438;SDS011;14887;51.252;7.470;2022-09-09T02:10:45;4.63;;;2.00;;
27438;SDS011;14887;51.252;7.470;2022-09-09T02:13:13;13.40;;;2.03;;
27438;SDS011;14887;51.252;7.470;2022-09-09T02:15:42;13.43;;;2.10;;
27438;SDS011;14887;51.252;7.470;2022-09-09T02:18:09;9.70;;;2.13;;
27438;SDS011;14887;51.252;7.470;2022-09-09T02:20:36;7.90;;;2.07;;
27438;SDS011;14887;51.252;7.470;2022-09-09T02:23:03;7.47;;;1.93;;
27438;SDS011;14887;51.252;7.470;2022-09-09T02:25:30;7.10;;;2.27;;
27438;SDS011;14887;51.252;7.470;2022-09-09T02:27:56;7.20;;;2.47;;
27438;SDS011;14887;51.252;7.470;2022-09-09T02:30:25;5.00;;;2.40;;
27438;SDS011;14887;51.252;7.470;2022-09-09T02:32:54;4.87;;;2.10;;
27438;SDS011;14887;51.252;7.470;2022-09-09T02:35:24;7.27;;;2.57;;
27438;SDS011;14887;51.252;7.470;2022-09-09T02:37:51;16.50;;;2.20;;
27438;SDS011;14887;51.252;7.470;2022-09-09T02:40:19;6.13;;;2.10;;
27438;SDS011;14887;51.252;7.470;2022-09-09T02:42:46;2.77;;;2.17;;
27438;SDS011;14887;51.252;7.470;2022-09-09T02:45:14;7.50;;;2.40;;
27438;SDS011;14887;51.252;7.470;2022-09-09T02:47:46;8.23;;;2.70;;
27438;SDS011;14887;51.252;7.470;2022-09-09T02:50:21;7.83;;;3.00;;
27438;SDS011;14887;51.252;7.470;2022-09-09T02:55:56;7.77;;;2.47;;
27438;SDS011;14887;51.252;7.470;2022-09-09T02:58:03;4.23;;;2.63;;
27438;SDS011;14887;51.252;7.470;2022-09-09T03:00:30;10.57;;;2.27;;
27438;SDS011;14887;51.252;7.470;2022-09-09T03:02:57;5.70;;;2.23;;
27438;SDS011;14887;51.252;7.470;2022-09-09T03:05:23;11.43;;;2.67;;
27438;SDS011;14887;51.252;7.470;2022-09-09T03:07:50;10.30;;;2.30;;
27438;SDS011;14887;51.252;7.470;2022-09-09T03:10:16;4.33;;;1.87;;
27438;SDS011;14887;51.252;7.470;2022-09-09T03:12:42;6.60;;;2.60;;
27438;SDS011;14887;51.252;7.470;2022-09-09T03:15:09;12.77;;;2.40;;
27438;SDS011;14887;51.252;7.470;2022-09-09T03:17:35;8.00;;;2.53;;
27438;SDS011;14887;51.252;7.470;2022-09-09T03:20:02;3.30;;;2.10;;
27438;SDS011;14887;51.252;7.470;2022-09-09T03:22:28;12.20;;;2.63;;
27438;SDS011;14887;51.252;7.470;2022-09-09T03:24:54;13.83;;;2.40;;
27438;SDS011;14887;51.252;7.470;2022-09-09T03:27:20;9.40;;;2.43;;
27438;SDS011;14887;51.252;7.470;2022-09-09T03:29:46;16.63;;;3.00;;
27438;SDS011;14887;51.252;7.470;2022-09-09T03:32:16;5.73;;;2.70;;
27438;SDS011;14887;51.252;7.470;2022-09-09T03:34:42;8.40;;;2.60;;
27438;SDS011;14887;51.252;7.470;2022-09-09T03:37:08;4.30;;;2.57;;
27438;SDS011;14887;51.252;7.470;2022-09-09T03:39:34;11.67;;;2.97;;
27438;SDS011;14887;51.252;7.470;2022-09-09T03:42:00;7.30;;;2.00;;
27438;SDS011;14887;51.252;7.470;2022-09-09T03:44:30;4.40;;;2.20;;
27438;SDS011;14887;51.252;7.470;2022-09-09T03:46:56;13.47;;;3.43;;
27438;SDS011;14887;51.252;7.470;2022-09-09T03:49:24;12.70;;;3.53;;
27438;SDS011;14887;51.252;7.470;2022-09-09T03:51:51;8.03;;;2.93;;
27438;SDS011;14887;51.252;7.470;2022-09-09T03:54:17;9.57;;;2.83;;
27438;SDS011;14887;51.252;7.470;2022-09-09T03:56:43;17.10;;;3.07;;
27438;SDS011;14887;51.252;7.470;2022-09-09T03:59:09;11.00;;;2.90;;
27438;SDS011;14887;51.252;7.470;2022-09-09T04:01:35;7.97;;;3.30;;
27438;SDS011;14887;51.252;7.470;2022-09-09T04:04:01;8.63;;;2.93;;
27438;SDS011;14887;51.252;7.470;2022-09-09T04:06:27;7.93;;;3.07;;
27438;SDS011;14887;51.252;7.470;2022-09-09T04:08:54;7.97;;;3.00;;
27438;SDS011;14887;51.252;7.470;2022-09-09T04:11:20;20.30;;;3.43;;
27438;SDS011;14887;51.252;7.470;2022-09-09T04:13:46;6.57;;;2.57;;
27438;SDS011;14887;51.252;7.470;2022-09-09T04:16:13;14.20;;;3.53;;
27438;SDS011;14887;51.252;7.470;2022-09-09T04:18:39;8.53;;;3.53;;
27438;SDS011;14887;51.252;7.470;2022-09-09T04:21:05;8.13;;;3.10;;
27438;SDS011;14887;51.252;7.470;2022-09-09T04:23:32;11.27;;;3.00;;
27438;SDS011;14887;51.252;7.470;2022-09-09T04:25:59;7.17;;;2.87;;
27438;SDS011;14887;51.252;7.470;2022-09-09T04:28:27;11.63;;;2.53;;
27438;SDS011;14887;51.252;7.470;2022-09-09T04:30:53;10.53;;;3.60;;
27438;SDS011;14887;51.252;7.470;2022-09-09T04:33:19;16.97;;;2.77;;
27438;SDS011;14887;51.252;7.470;2022-09-09T04:35:48;14.03;;;3.50;;
27438;SDS011;14887;51.252;7.470;2022-09-09T04:38:15;11.90;;;2.60;;
27438;SDS011;14887;51.252;7.470;2022-09-09T04:40:42;12.80;;;3.30;;
27438;SDS011;14887;51.252;7.470;2022-09-09T04:43:08;9.53;;;3.20;;
27438;SDS011;14887;51.252;7.470;2022-09-09T04:45:35;11.57;;;3.20;;
27438;SDS011;14887;51.252;7.470;2022-09-09T04:48:02;5.83;;;2.60;;
27438;SDS011;14887;51.252;7.470;2022-09-09T04:50:28;15.47;;;3.37;;
27438;SDS011;14887;51.252;7.470;2022-09-09T04:52:54;11.43;;;2.73;;
27438;SDS011;14887;51.252;7.470;2022-09-09T04:55:20;8.07;;;2.33;;
27438;SDS011;14887;51.252;7.470;2022-09-09T04:57:46;19.63;;;3.30;;
27438;SDS011;14887;51.252;7.470;2022-09-09T05:00:13;7.90;;;3.00;;
27438;SDS011;14887;51.252;7.470;2022-09-09T05:02:39;14.83;;;3.00;;
27438;SDS011;14887;51.252;7.470;2022-09-09T05:05:07;12.87;;;3.10;;
27438;SDS011;14887;51.252;7.470;2022-09-09T05:07:33;11.90;;;2.93;;
27438;SDS011;14887;51.252;7.470;2022-09-09T05:09:59;12.43;;;2.97;;
27438;SDS011;14887;51.252;7.470;2022-09-09T05:12:25;4.60;;;2.57;;
27438;SDS011;14887;51.252;7.470;2022-09-09T05:14:51;6.07;;;2.67;;
27438;SDS011;14887;51.252;7.470;2022-09-09T05:17:17;12.17;;;3.40;;
27438;SDS011;14887;51.252;7.470;2022-09-09T05:19:43;12.00;;;2.37;;
27438;SDS011;14887;51.252;7.470;2022-09-09T05:22:09;12.83;;;3.03;;
27438;SDS011;14887;51.252;7.470;2022-09-09T05:24:36;17.23;;;2.83;;
27438;SDS011;14887;51.252;7.470;2022-09-09T05:27:03;9.67;;;2.10;;
27438;SDS011;14887;51.252;7.470;2022-09-09T05:29:29;12.80;;;2.77;;
27438;SDS011;14887;51.252;7.470;2022-09-09T05:31:58;14.93;;;3.03;;
27438;SDS011;14887;51.252;7.470;2022-09-09T05:34:24;11.27;;;2.53;;
27438;SDS011;14887;51.252;7.470;2022-09-09T05:36:50;6.63;;;2.50;;
27438;SDS011;14887;51.252;7.470;2022-09-09T05:39:17;5.77;;;2.63;;
27438;SDS011;14887;51.252;7.470;2022-09-09T05:41:43;7.47;;;2.63;;
27438;SDS011;14887;51.252;7.470;2022-09-09T05:44:09;31.47;;;2.97;;
27438;SDS011;14887;51.252;7.470;2022-09-09T05:46:35;8.60;;;2.73;;
27438;SDS011;14887;51.252;7.470;2022-09-09T05:49:01;11.90;;;2.57;;
27438;SDS011;14887;51.252;7.470;2022-09-09T05:51:27;12.97;;;3.60;;
27438;SDS011;14887;51.252;7.470;2022-09-09T05:53:55;8.03;;;2.60;;
27438;SDS011;14887;51.252;7.470;2022-09-09T05:56:23;9.73;;;3.00;;
27438;SDS011;14887;51.252;7.470;2022-09-09T05:58:50;12.27;;;3.50;;
27438;SDS011;14887;51.252;7.470;2022-09-09T06:01:17;10.00;;;2.40;;
27438;SDS011;14887;51.252;7.470;2022-09-09T06:03:44;12.10;;;2.80;;
27438;SDS011;14887;51.252;7.470;2022-09-09T06:06:11;7.00;;;2.10;;
27438;SDS011;14887;51.252;7.470;2022-09-09T06:08:39;6.13;;;2.70;;
27438;SDS011;14887;51.252;7.470;2022-09-09T06:11:16;9.37;;;2.80;;
27438;SDS011;14887;51.252;7.470;2022-09-09T06:13:42;7.83;;;2.83;;
27438;SDS011;14887;51.252;7.470;2022-09-09T06:16:09;8.07;;;3.07;;
27438;SDS011;14887;51.252;7.470;2022-09-09T06:18:36;8.90;;;2.90;;
27438;SDS011;14887;51.252;7.470;2022-09-09T06:21:03;5.83;;;2.60;;
27438;SDS011;14887;51.252;7.470;2022-09-09T06:23:31;7.33;;;2.87;;
27438;SDS011;14887;51.252;7.470;2022-09-09T06:26:01;7.60;;;3.13;;
27438;SDS011;14887;51.252;7.470;2022-09-09T06:28:27;7.43;;;2.73;;
27438;SDS011;14887;51.252;7.470;2022-09-09T06:30:57;13.67;;;2.80;;
27438;SDS011;14887;51.252;7.470;2022-09-09T06:33:23;3.70;;;2.37;;
27438;SDS011;14887;51.252;7.470;2022-09-09T06:35:52;8.73;;;2.70;;
27438;SDS011;14887;51.252;7.470;2022-09-09T06:38:18;3.90;;;2.40;;
27438;SDS011;14887;51.252;7.470;2022-09-09T06:40:54;8.50;;;2.40;;
27438;SDS011;14887;51.252;7.470;2022-09-09T06:43:21;7.87;;;4.43;;
27438;SDS011;14887;51.252;7.470;2022-09-09T06:46:00;9.60;;;2.03;;
27438;SDS011;14887;51.252;7.470;2022-09-09T06:48:27;4.40;;;2.60;;
27438;SDS011;14887;51.252;7.470;2022-09-09T06:53:31;6.30;;;2.57;;
27438;SDS011;14887;51.252;7.470;2022-09-09T06:55:58;5.87;;;3.13;;
27438;SDS011;14887;51.252;7.470;2022-09-09T06:58:26;7.43;;;2.63;;
27438;SDS011;14887;51.252;7.470;2022-09-09T07:00:52;12.57;;;3.47;;
27438;SDS011;14887;51.252;7.470;2022-09-09T07:03:17;6.37;;;2.80;;
27438;SDS011;14887;51.252;7.470;2022-09-09T07:05:53;8.90;;;3.50;;
27438;SDS011;14887;51.252;7.470;2022-09-09T07:08:18;9.43;;;2.67;;
27438;SDS011;14887;51.252;7.470;2022-09-09T07:10:45;5.37;;;2.77;;
27438;SDS011;14887;51.252;7.470;2022-09-09T07:13:12;11.93;;;2.50;;
27438;SDS011;14887;51.252;7.470;2022-09-09T07:15:39;7.13;;;2.60;;
27438;SDS011;14887;51.252;7.470;2022-09-09T07:18:05;7.33;;;2.90;;
27438;SDS011;14887;51.252;7.470;2022-09-09T07:20:31;3.03;;;2.30;;
27438;SDS011;14887;51.252;7.470;2022-09-09T07:22:57;12.17;;;2.30;;
27438;SDS011;14887;51.252;7.470;2022-09-09T07:25:24;7.43;;;2.80;;
27438;SDS011;14887;51.252;7.470;2022-09-09T07:27:53;9.37;;;2.77;;
27438;SDS011;14887;51.252;7.470;2022-09-09T07:30:19;13.73;;;3.70;;
27438;SDS011;14887;51.252;7.470;2022-09-09T07:32:45;6.80;;;2.23;;
27438;SDS011;14887;51.252;7.470;2022-09-09T07:35:11;11.93;;;2.10;;
27438;SDS011;14887;51.252;7.470;2022-09-09T07:37:37;9.87;;;2.20;;
27438;SDS011;14887;51.252;7.470;2022-09-09T07:40:03;11.73;;;3.90;;
27438;SDS011;14887;51.252;7.470;2022-09-09T07:42:30;11.63;;;3.37;;
27438;SDS011;14887;51.252;7.470;2022-09-09T07:44:56;10.13;;;2.13;;
27438;SDS011;14887;51.252;7.470;2022-09-09T07:47:22;13.33;;;2.30;;
27438;SDS011;14887;51.252;7.470;2022-09-09T07:49:49;7.37;;;1.70;;
27438;SDS011;14887;51.252;7.470;2022-09-09T07:52:15;10.60;;;2.90;;
27438;SDS011;14887;51.252;7.470;2022-09-09T07:54:41;8.73;;;2.20;;
27438;SDS011;14887;51.252;7.470;2022-09-09T07:57:07;6.93;;;2.97;;
27438;SDS011;14887;51.252;7.470;2022-09-09T07:59:33;11.63;;;1.97;;
27438;SDS011;14887;51.252;7.470;2022-09-09T08:01:59;7.80;;;1.83;;
27438;SDS011;14887;51.252;7.470;2022-09-09T08:04:25;10.80;;;2.10;;
27438;SDS011;14887;51.252;7.470;2022-09-09T08:06:56;9.20;;;2.13;;
27438;SDS011;14887;51.252;7.470;2022-09-09T08:09:23;6.53;;;2.40;;
27438;SDS011;14887;51.252;7.470;2022-09-09T08:11:51;6.90;;;1.60;;
27438;SDS011;14887;51.252;7.470;2022-09-09T08:14:18;6.70;;;2.30;;
27438;SDS011;14887;51.252;7.470;2022-09-09T08:16:44;6.33;;;1.70;;
27438;SDS011;14887;51.252;7.470;2022-09-09T08:19:11;7.70;;;1.97;;
27438;SDS011;14887;51.252;7.470;2022-09-09T08:21:37;4.00;;;1.50;;
27438;SDS011;14887;51.252;7.470;2022-09-09T08:24:06;8.17;;;2.10;;
27438;SDS011;14887;51.252;7.470;2022-09-09T08:26:34;16.70;;;3.63;;
27438;SDS011;14887;51.252;7.470;2022-09-09T08:29:00;4.33;;;1.63;;
27438;SDS011;14887;51.252;7.470;2022-09-09T08:31:31;4.63;;;1.50;;
27438;SDS011;14887;51.252;7.470;2022-09-09T08:33:58;10.93;;;1.60;;
27438;SDS011;14887;51.252;7.470;2022-09-09T08:36:25;8.40;;;2.13;;
27438;SDS011;14887;51.252;7.470;2022-09-09T08:38:52;3.60;;;1.53;;
27438;SDS011;14887;51.252;7.470;2022-09-09T08:44:10;4.40;;;1.40;;
27438;SDS011;14887;51.252;7.470;2022-09-09T08:46:45;6.50;;;2.07;;
27438;SDS011;14887;51.252;7.470;2022-09-09T08:51:41;4.60;;;1.70;;
27438;SDS011;14887;51.252;7.470;2022-09-09T08:54:07;7.27;;;2.17;;
27438;SDS011;14887;51.252;7.470;2022-09-09T08:56:35;3.53;;;1.40;;
27438;SDS011;14887;51.252;7.470;2022-09-09T08:59:01;5.70;;;1.80;;
27438;SDS011;14887;51.252;7.470;2022-09-09T09:07:00;5.60;;;1.57;;
27438;SDS011;14887;51.252;7.470;2022-09-09T09:10:16;7.30;;;2.00;;
27438;SDS011;14887;51.252;7.470;2022-09-09T09:12:23;11.93;;;1.77;;
27438;SDS011;14887;51.252;7.470;2022-09-09T09:14:50;7.83;;;1.97;;
27438;SDS011;14887;51.252;7.470;2022-09-09T09:17:17;4.20;;;1.77;;
27438;SDS011;14887;51.252;7.470;2022-09-09T09:19:44;10.37;;;1.70;;
27438;SDS011;14887;51.252;7.470;2022-09-09T09:22:21;6.53;;;1.30;;
27438;SDS011;14887;51.252;7.470;2022-09-09T09:27:18;6.67;;;1.87;;
27438;SDS011;14887;51.252;7.470;2022-09-09T09:29:47;8.37;;;1.20;;
27438;SDS011;14887;51.252;7.470;2022-09-09T09:32:15;17.10;;;4.13;;
27438;SDS011;14887;51.252;7.470;2022-09-09T09:34:42;4.30;;;1.37;;
27438;SDS011;14887;51.252;7.470;2022-09-09T09:37:19;7.67;;;1.10;;
27438;SDS011;14887;51.252;7.470;2022-09-09T09:39:48;4.50;;;0.93;;
27438;SDS011;14887;51.252;7.470;2022-09-09T09:42:17;11.03;;;1.87;;
27438;SDS011;14887;51.252;7.470;2022-09-09T09:44:44;6.63;;;1.27;;
27438;SDS011;14887;51.252;7.470;2022-09-09T09:47:15;6.90;;;1.40;;
27438;SDS011;14887;51.252;7.470;2022-09-09T09:50:00;6.30;;;1.53;;
27438;SDS011;14887;51.252;7.470;2022-09-09T09:52:28;5.50;;;1.33;;
27438;SDS011;14887;51.252;7.470;2022-09-09T09:54:54;2.77;;;1.23;;
27438;SDS011;14887;51.252;7.470;2022-09-09T09:57:25;8.20;;;1.27;;
27438;SDS011;14887;51.252;7.470;2022-09-09T10:00:00;7.03;;;1.40;;
27438;SDS011;14887;51.252;7.470;2022-09-09T10:02:36;7.30;;;1.23;;
27438;SDS011;14887;51.252;7.470;2022-09-09T10:05:04;9.60;;;1.33;;
27438;SDS011;14887;51.252;7.470;2022-09-09T10:07:30;6.33;;;1.20;;
27438;SDS011;14887;51.252;7.470;2022-09-09T10:09:58;7.10;;;1.40;;
27438;SDS011;14887;51.252;7.470;2022-09-09T10:22:44;10.13;;;1.33;;
27438;SDS011;14887;51.252;7.470;2022-09-09T10:32:49;6.33;;;1.47;;
27438;SDS011;14887;51.252;7.470;2022-09-09T10:38:11;6.90;;;1.37;;
27438;SDS011;14887;51.252;7.470;2022-09-09T10:46:01;7.63;;;1.33;;
27438;SDS011;14887;51.252;7.470;2022-09-09T10:48:38;8.70;;;1.20;;
27438;SDS011;14887;51.252;7.470;2022-09-09T10:56:15;7.83;;;1.80;;
27438;SDS011;14887;51.252;7.470;2022-09-09T10:58:47;15.23;;;1.73;;
27438;SDS011;14887;51.252;7.470;2022-09-09T11:03:42;3.43;;;1.73;;
27438;SDS011;14887;51.252;7.470;2022-09-09T11:06:13;13.27;;;2.03;;
27438;SDS011;14887;51.252;7.470;2022-09-09T11:08:40;5.13;;;1.87;;
27438;SDS011;14887;51.252;7.470;2022-09-09T11:11:11;7.00;;;1.60;;
27438;SDS011;14887;51.252;7.470;2022-09-09T11:13:58;2.90;;;1.40;;
27438;SDS011;14887;51.252;7.470;2022-09-09T11:21:45;4.17;;;1.47;;
27438;SDS011;14887;51.252;7.470;2022-09-09T11:24:20;6.60;;;1.23;;
27438;SDS011;14887;51.252;7.470;2022-09-09T11:26:50;13.20;;;1.80;;
27438;SDS011;14887;51.252;7.470;2022-09-09T11:31:57;3.43;;;1.27;;
27438;SDS011;14887;51.252;7.470;2022-09-09T11:44:37;7.63;;;1.60;;
27438;SDS011;14887;51.252;7.470;2022-09-09T11:47:03;7.20;;;1.63;;
27438;SDS011;14887;51.252;7.470;2022-09-09T11:49:40;8.50;;;2.03;;
27438;SDS011;14887;51.252;7.470;2022-09-09T11:52:23;5.83;;;1.87;;
27438;SDS011;14887;51.252;7.470;2022-09-09T11:54:50;5.70;;;1.80;;
27438;SDS011;14887;51.252;7.470;2022-09-09T11:57:23;3.03;;;1.47;;
27438;SDS011;14887;51.252;7.470;2022-09-09T11:59:50;4.60;;;1.23;;
27438;SDS011;14887;51.252;7.470;2022-09-09T12:02:19;3.30;;;1.00;;
27438;SDS011;14887;51.252;7.470;2022-09-09T12:05:06;3.80;;;1.00;;
27438;SDS011;14887;51.252;7.470;2022-09-09T12:07:49;3.57;;;1.00;;
27438;SDS011;14887;51.252;7.470;2022-09-09T12:12:44;8.30;;;1.70;;
27438;SDS011;14887;51.252;7.470;2022-09-09T12:17:43;2.00;;;0.97;;
27438;SDS011;14887;51.252;7.470;2022-09-09T12:25:26;5.60;;;0.90;;
27438;SDS011;14887;51.252;7.470;2022-09-09T12:30:49;1.30;;;1.20;;
27438;SDS011;14887;51.252;7.470;2022-09-09T12:33:17;2.97;;;1.10;;
27438;SDS011;14887;51.252;7.470;2022-09-09T12:35:44;2.10;;;0.80;;
27438;SDS011;14887;51.252;7.470;2022-09-09T12:38:21;2.13;;;1.10;;
27438;SDS011;14887;51.252;7.470;2022-09-09T12:40:55;4.27;;;1.00;;
27438;SDS011;14887;51.252;7.470;2022-09-09T12:43:23;2.93;;;0.90;;
27438;SDS011;14887;51.252;7.470;2022-09-09T12:45:50;4.13;;;1.70;;
27438;SDS011;14887;51.252;7.470;2022-09-09T12:48:27;3.90;;;1.17;;
27438;SDS011;14887;51.252;7.470;2022-09-09T12:50:55;5.80;;;1.20;;
27438;SDS011;14887;51.252;7.470;2022-09-09T12:53:24;3.37;;;0.90;;
27438;SDS011;14887;51.252;7.470;2022-09-09T12:55:57;1.60;;;0.90;;
27438;SDS011;14887;51.252;7.470;2022-09-09T12:58:23;4.47;;;1.20;;
27438;SDS011;14887;51.252;7.470;2022-09-09T13:00:50;3.47;;;0.87;;
27438;SDS011;14887;51.252;7.470;2022-09-09T13:03:17;1.97;;;0.77;;
27438;SDS011;14887;51.252;7.470;2022-09-09T13:05:45;1.43;;;0.90;;
27438;SDS011;14887;51.252;7.470;2022-09-09T13:08:12;3.83;;;1.87;;
27438;SDS011;14887;51.252;7.470;2022-09-09T13:13:14;3.00;;;0.90;;
27438;SDS011;14887;51.252;7.470;2022-09-09T13:15:47;2.53;;;0.90;;
27438;SDS011;14887;51.252;7.470;2022-09-09T13:18:14;4.60;;;1.40;;
27438;SDS011;14887;51.252;7.470;2022-09-09T13:20:45;3.90;;;1.10;;
27438;SDS011;14887;51.252;7.470;2022-09-09T13:23:11;3.50;;;1.00;;
27438;SDS011;14887;51.252;7.470;2022-09-09T13:25:37;1.90;;;1.20;;
27438;SDS011;14887;51.252;7.470;2022-09-09T13:28:04;1.40;;;0.90;;
27438;SDS011;14887;51.252;7.470;2022-09-09T13:30:34;9.60;;;4.67;;
27438;SDS011;14887;51.252;7.470;2022-09-09T13:35:30;2.70;;;1.20;;
27438;SDS011;14887;51.252;7.470;2022-09-09T13:37:57;3.53;;;1.50;;
27438;SDS011;14887;51.252;7.470;2022-09-09T13:40:23;3.53;;;1.50;;
27438;SDS011;14887;51.252;7.470;2022-09-09T13:42:56;2.20;;;1.07;;
27438;SDS011;14887;51.252;7.470;2022-09-09T13:45:23;4.50;;;0.93;;
27438;SDS011;14887;51.252;7.470;2022-09-09T13:47:51;2.93;;;1.00;;
27438;SDS011;14887;51.252;7.470;2022-09-09T13:50:27;7.07;;;1.00;;
27438;SDS011;14887;51.252;7.470;2022-09-09T13:52:57;4.70;;;1.23;;
27438;SDS011;14887;51.252;7.470;2022-09-09T13:55:24;8.60;;;1.50;;
27438;SDS011;14887;51.252;7.470;2022-09-09T13:57:54;2.60;;;0.87;;
27438;SDS011;14887;51.252;7.470;2022-09-09T14:00:20;11.30;;;1.23;;
27438;SDS011;14887;51.252;7.470;2022-09-09T14:02:46;2.30;;;1.10;;
27438;SDS011;14887;51.252;7.470;2022-09-09T14:05:12;4.03;;;1.30;;
27438;SDS011;14887;51.252;7.470;2022-09-09T14:07:40;5.53;;;1.47;;
27438;SDS011;14887;51.252;7.470;2022-09-09T14:10:07;6.63;;;1.33;;
27438;SDS011;14887;51.252;7.470;2022-09-09T14:12:35;5.63;;;1.60;;
27438;SDS011;14887;51.252;7.470;2022-09-09T14:15:02;4.00;;;1.67;;
27438;SDS011;14887;51.252;7.470;2022-09-09T14:17:28;3.17;;;1.83;;
27438;SDS011;14887;51.252;7.470;2022-09-09T14:19:55;4.33;;;1.70;;
27438;SDS011;14887;51.252;7.470;2022-09-09T14:22:21;16.40;;;1.60;;
27438;SDS011;14887;51.252;7.470;2022-09-09T14:24:53;8.63;;;1.70;;
27438;SDS011;14887;51.252;7.470;2022-09-09T14:27:19;11.30;;;1.77;;
27438;SDS011;14887;51.252;7.470;2022-09-09T14:29:45;4.33;;;1.50;;
27438;SDS011;14887;51.252;7.470;2022-09-09T14:32:11;10.73;;;2.23;;
27438;SDS011;14887;51.252;7.470;2022-09-09T14:34:37;2.80;;;1.57;;
27438;SDS011;14887;51.252;7.470;2022-09-09T14:37:05;8.30;;;1.80;;
27438;SDS011;14887;51.252;7.470;2022-09-09T14:39:31;17.50;;;4.47;;
27438;SDS011;14887;51.252;7.470;2022-09-09T14:41:57;4.00;;;1.70;;
27438;SDS011;14887;51.252;7.470;2022-09-09T14:44:23;4.00;;;2.20;;
27438;SDS011;14887;51.252;7.470;2022-09-09T14:46:49;6.70;;;1.83;;
27438;SDS011;14887;51.252;7.470;2022-09-09T14:49:15;4.57;;;1.73;;
27438;SDS011;14887;51.252;7.470;2022-09-09T14:51:41;9.13;;;1.90;;
27438;SDS011;14887;51.252;7.470;2022-09-09T14:54:07;3.63;;;1.97;;
27438;SDS011;14887;51.252;7.470;2022-09-09T14:56:34;7.90;;;2.10;;
27438;SDS011;14887;51.252;7.470;2022-09-09T14:59:00;13.67;;;1.97;;
27438;SDS011;14887;51.252;7.470;2022-09-09T15:01:27;4.13;;;2.27;;
27438;SDS011;14887;51.252;7.470;2022-09-09T15:03:56;7.50;;;2.27;;
27438;SDS011;14887;51.252;7.470;2022-09-09T15:06:24;9.30;;;2.40;;
27438;SDS011;14887;51.252;7.470;2022-09-09T15:08:50;4.60;;;1.50;;
27438;SDS011;14887;51.252;7.470;2022-09-09T15:11:17;9.60;;;2.80;;
27438;SDS011;14887;51.252;7.470;2022-09-09T15:13:43;7.27;;;2.77;;
27438;SDS011;14887;51.252;7.470;2022-09-09T15:16:11;10.53;;;2.30;;
27438;SDS011;14887;51.252;7.470;2022-09-09T15:18:37;8.97;;;2.40;;
27438;SDS011;14887;51.252;7.470;2022-09-09T15:21:08;11.17;;;4.03;;
27438;SDS011;14887;51.252;7.470;2022-09-09T15:23:34;22.33;;;3.43;;
27438;SDS011;14887;51.252;7.470;2022-09-09T15:26:01;20.80;;;4.33;;
27438;SDS011;14887;51.252;7.470;2022-09-09T15:28:27;4.00;;;2.40;;
27438;SDS011;14887;51.252;7.470;2022-09-09T15:30:53;11.83;;;3.67;;
27438;SDS011;14887;51.252;7.470;2022-09-09T15:33:22;13.60;;;2.50;;
27438;SDS011;14887;51.252;7.470;2022-09-09T15:35:48;5.40;;;2.50;;
27438;SDS011;14887;51.252;7.470;2022-09-09T15:38:17;2.57;;;2.10;;
27438;SDS011;14887;51.252;7.470;2022-09-09T15:40:44;9.50;;;2.50;;
27438;SDS011;14887;51.252;7.470;2022-09-09T15:43:11;12.83;;;2.70;;
27438;SDS011;14887;51.252;7.470;2022-09-09T15:45:38;7.57;;;2.60;;
27438;SDS011;14887;51.252;7.470;2022-09-09T15:48:04;4.57;;;2.87;;
27438;SDS011;14887;51.252;7.470;2022-09-09T15:50:30;15.00;;;3.50;;
27438;SDS011;14887;51.252;7.470;2022-09-09T15:52:57;20.40;;;3.63;;
27438;SDS011;14887;51.252;7.470;2022-09-09T15:55:23;11.90;;;3.10;;
27438;SDS011;14887;51.252;7.470;2022-09-09T15:57:49;13.93;;;3.07;;
27438;SDS011;14887;51.252;7.470;2022-09-09T16:00:17;9.50;;;2.60;;
27438;SDS011;14887;51.252;7.470;2022-09-09T16:02:43;9.40;;;2.90;;
27438;SDS011;14887;51.252;7.470;2022-09-09T16:05:09;6.03;;;2.60;;
27438;SDS011;14887;51.252;7.470;2022-09-09T16:07:35;4.33;;;2.13;;
27438;SDS011;14887;51.252;7.470;2022-09-09T16:10:02;5.33;;;1.73;;
27438;SDS011;14887;51.252;7.470;2022-09-09T16:12:28;4.83;;;1.40;;
27438;SDS011;14887;51.252;7.470;2022-09-09T16:14:54;4.10;;;1.33;;
27438;SDS011;14887;51.252;7.470;2022-09-09T16:17:20;5.60;;;1.80;;
27438;SDS011;14887;51.252;7.470;2022-09-09T16:19:47;8.20;;;1.87;;
27438;SDS011;14887;51.252;7.470;2022-09-09T16:22:13;4.60;;;1.80;;
27438;SDS011;14887;51.252;7.470;2022-09-09T16:24:40;5.43;;;2.37;;
27438;SDS011;14887;51.252;7.470;2022-09-09T16:27:06;4.07;;;1.90;;
27438;SDS011;14887;51.252;7.470;2022-09-09T16:29:32;4.47;;;2.17;;
27438;SDS011;14887;51.252;7.470;2022-09-09T16:31:58;5.67;;;1.80;;
27438;SDS011;14887;51.252;7.470;2022-09-09T16:34:24;3.60;;;2.30;;
27438;SDS011;14887;51.252;7.470;2022-09-09T16:36:50;5.73;;;2.03;;
27438;SDS011;14887;51.252;7.470;2022-09-09T16:39:18;12.20;;;1.63;;
27438;SDS011;14887;51.252;7.470;2022-09-09T16:41:44;2.87;;;1.90;;
27438;SDS011;14887;51.252;7.470;2022-09-09T16:44:12;3.87;;;1.33;;